Bookmark and Share
Track history (hours):
 

Zaliv Vostok

Last reported at 2014-Apr-22 23:30 UTC. Time now 2014-Apr-24 11:06 UTC.
Position N 26°05' E 052°18'.

Length 244 m; draft 12.1 m.

Type: Tanker. MMSI: 636014127.

NotesDate/timePositionNaut miles runAvg speedWind from/ knotsBaromVisibWave heightAir tempDewpointWater temp
2014-Apr-22 23:30N 26°05' E 052°18'1312.2
2014-Apr-22 22:27N 26°03' E 052°04'1112.1
2014-Apr-22 21:32N 26°01' E 051°52'1410.6
2014-Apr-22 20:16N 25°56' E 051°38'1 0.1
2014-Apr-22 14:07N 25°56' E 051°37'0 0.0
2014-Apr-22 13:25N 25°56' E 051°37'0 0.0
2014-Apr-22 10:24N 25°56' E 051°37'0 0.0
2014-Apr-21 09:30N 25°55' E 051°37'0 0.0
2014-Apr-21 08:30N 25°55' E 051°37'0 0.1
2014-Apr-21 07:29N 25°55' E 051°37'20 2.5
2014-Apr-20 23:19N 26°08' E 051°54'3 0.8
2014-Apr-20 19:32N 26°08' E 051°51'2 1.3
2014-Apr-20 18:05N 26°09' E 051°50'1 1.3
2014-Apr-20 17:33N 26°10' E 051°49'5 1.6
2014-Apr-20 14:33N 26°06' E 051°53'1 1.4
2014-Apr-20 13:33N 26°07' E 051°51'5 4.6
2014-Apr-20 12:33N 26°03' E 051°54'2310.5
2014-Apr-20 10:23N 26°05' E 052°19'911.2
2014-Apr-20 09:33N 26°07' E 052°29'1111.0
2014-Apr-20 08:33N 26°09' E 052°41'1311.1
2014-Apr-20 07:21N 26°11' E 052°56'4311.2
2014-Apr-20 03:33N 26°18' E 053°43'1311.6
2014-Apr-20 02:24N 26°19' E 053°58'1011.7
2014-Apr-20 01:32N 26°20' E 054°09'1611.6
2014-Apr-20 00:09N 26°22' E 054°27'4111.4
2014-Apr-19 20:33N 26°19' E 055°13'1211.8
2014-Apr-19 19:33N 26°21' E 055°25'2311.5
2014-Apr-19 17:33N 26°28' E 055°50'1211.5
2014-Apr-19 16:32N 26°30' E 056°03'1211.0
2014-Apr-19 15:25N 26°35' E 056°15'  

Dump ship's entire track history

sailing weather and tide predictions

Zaliv Vostok — A8RM6 — position and weather